sensor_id;sensor_type;location;lat;lon;timestamp;P1;durP1;ratioP1;P2;durP2;ratioP2
38725;SDS011;24474;48.906;8.808;2024-03-07T00:00:10;34.10;;;24.63;;
38725;SDS011;24474;48.906;8.808;2024-03-07T00:02:41;33.75;;;24.35;;
38725;SDS011;24474;48.906;8.808;2024-03-07T00:05:08;34.45;;;23.80;;
38725;SDS011;24474;48.906;8.808;2024-03-07T00:07:33;32.58;;;23.70;;
38725;SDS011;24474;48.906;8.808;2024-03-07T00:10:02;36.72;;;24.85;;
38725;SDS011;24474;48.906;8.808;2024-03-07T00:12:29;35.83;;;24.10;;
38725;SDS011;24474;48.906;8.808;2024-03-07T00:14:55;35.13;;;24.70;;
38725;SDS011;24474;48.906;8.808;2024-03-07T00:17:20;38.80;;;24.42;;
38725;SDS011;24474;48.906;8.808;2024-03-07T00:19:47;33.58;;;24.13;;
38725;SDS011;24474;48.906;8.808;2024-03-07T00:22:13;39.25;;;24.80;;
38725;SDS011;24474;48.906;8.808;2024-03-07T00:24:39;35.80;;;25.02;;
38725;SDS011;24474;48.906;8.808;2024-03-07T00:27:05;34.10;;;23.83;;
38725;SDS011;24474;48.906;8.808;2024-03-07T00:29:32;39.72;;;24.65;;
38725;SDS011;24474;48.906;8.808;2024-03-07T00:32:00;39.42;;;25.05;;
38725;SDS011;24474;48.906;8.808;2024-03-07T00:34:26;37.20;;;25.48;;
38725;SDS011;24474;48.906;8.808;2024-03-07T00:36:51;38.17;;;25.08;;
38725;SDS011;24474;48.906;8.808;2024-03-07T00:39:17;35.88;;;24.67;;
38725;SDS011;24474;48.906;8.808;2024-03-07T00:41:44;35.92;;;24.40;;
38725;SDS011;24474;48.906;8.808;2024-03-07T00:44:10;35.80;;;24.88;;
38725;SDS011;24474;48.906;8.808;2024-03-07T00:46:36;35.88;;;24.77;;
38725;SDS011;24474;48.906;8.808;2024-03-07T00:49:02;35.97;;;25.05;;
38725;SDS011;24474;48.906;8.808;2024-03-07T00:51:28;37.95;;;26.13;;
38725;SDS011;24474;48.906;8.808;2024-03-07T00:53:54;36.28;;;25.90;;
38725;SDS011;24474;48.906;8.808;2024-03-07T00:56:20;39.97;;;26.40;;
38725;SDS011;24474;48.906;8.808;2024-03-07T00:58:48;38.45;;;25.13;;
38725;SDS011;24474;48.906;8.808;2024-03-07T01:01:14;36.63;;;26.52;;
38725;SDS011;24474;48.906;8.808;2024-03-07T01:03:40;39.25;;;25.70;;
38725;SDS011;24474;48.906;8.808;2024-03-07T01:06:06;37.30;;;25.80;;
38725;SDS011;24474;48.906;8.808;2024-03-07T01:08:34;37.47;;;25.80;;
38725;SDS011;24474;48.906;8.808;2024-03-07T01:11:01;38.42;;;25.75;;
38725;SDS011;24474;48.906;8.808;2024-03-07T01:13:34;39.00;;;26.13;;
38725;SDS011;24474;48.906;8.808;2024-03-07T01:16:06;36.80;;;25.33;;
38725;SDS011;24474;48.906;8.808;2024-03-07T01:18:32;37.58;;;24.60;;
38725;SDS011;24474;48.906;8.808;2024-03-07T01:20:58;37.55;;;24.83;;
38725;SDS011;24474;48.906;8.808;2024-03-07T01:23:24;36.75;;;24.05;;
38725;SDS011;24474;48.906;8.808;2024-03-07T01:25:50;36.38;;;24.70;;
38725;SDS011;24474;48.906;8.808;2024-03-07T01:28:15;36.72;;;25.25;;
38725;SDS011;24474;48.906;8.808;2024-03-07T01:30:43;35.92;;;25.25;;
38725;SDS011;24474;48.906;8.808;2024-03-07T01:33:09;36.70;;;25.10;;
38725;SDS011;24474;48.906;8.808;2024-03-07T01:35:34;38.22;;;25.35;;
38725;SDS011;24474;48.906;8.808;2024-03-07T01:38:00;34.95;;;25.35;;
38725;SDS011;24474;48.906;8.808;2024-03-07T01:40:28;39.10;;;24.38;;
38725;SDS011;24474;48.906;8.808;2024-03-07T01:42:54;39.22;;;26.10;;
38725;SDS011;24474;48.906;8.808;2024-03-07T01:45:20;37.38;;;24.73;;
38725;SDS011;24474;48.906;8.808;2024-03-07T01:47:46;39.25;;;25.55;;
38725;SDS011;24474;48.906;8.808;2024-03-07T01:50:11;37.33;;;24.98;;
38725;SDS011;24474;48.906;8.808;2024-03-07T01:52:39;38.92;;;25.85;;
38725;SDS011;24474;48.906;8.808;2024-03-07T01:55:07;36.00;;;24.85;;
38725;SDS011;24474;48.906;8.808;2024-03-07T01:57:34;37.10;;;24.83;;
38725;SDS011;24474;48.906;8.808;2024-03-07T02:00:00;37.45;;;25.13;;
38725;SDS011;24474;48.906;8.808;2024-03-07T02:02:30;38.92;;;24.48;;
38725;SDS011;24474;48.906;8.808;2024-03-07T02:04:55;37.80;;;25.58;;
38725;SDS011;24474;48.906;8.808;2024-03-07T02:07:21;38.72;;;25.33;;
38725;SDS011;24474;48.906;8.808;2024-03-07T02:09:46;38.25;;;24.27;;
38725;SDS011;24474;48.906;8.808;2024-03-07T02:12:12;36.47;;;24.48;;
38725;SDS011;24474;48.906;8.808;2024-03-07T02:14:38;36.42;;;24.80;;
38725;SDS011;24474;48.906;8.808;2024-03-07T02:17:03;33.00;;;22.90;;
38725;SDS011;24474;48.906;8.808;2024-03-07T02:19:29;38.67;;;23.08;;
38725;SDS011;24474;48.906;8.808;2024-03-07T02:21:57;32.75;;;23.08;;
38725;SDS011;24474;48.906;8.808;2024-03-07T02:24:24;32.10;;;22.13;;
38725;SDS011;24474;48.906;8.808;2024-03-07T02:26:50;34.03;;;22.65;;
38725;SDS011;24474;48.906;8.808;2024-03-07T02:29:16;34.03;;;22.60;;
38725;SDS011;24474;48.906;8.808;2024-03-07T02:31:44;32.90;;;22.05;;
38725;SDS011;24474;48.906;8.808;2024-03-07T02:34:10;33.38;;;22.48;;
38725;SDS011;24474;48.906;8.808;2024-03-07T02:36:36;36.30;;;23.38;;
38725;SDS011;24474;48.906;8.808;2024-03-07T02:39:02;37.72;;;24.83;;
38725;SDS011;24474;48.906;8.808;2024-03-07T02:41:28;38.28;;;24.10;;
38725;SDS011;24474;48.906;8.808;2024-03-07T02:43:53;40.50;;;25.90;;
38725;SDS011;24474;48.906;8.808;2024-03-07T02:46:19;39.10;;;25.23;;
38725;SDS011;24474;48.906;8.808;2024-03-07T02:48:45;39.28;;;25.15;;
38725;SDS011;24474;48.906;8.808;2024-03-07T02:51:10;38.85;;;24.98;;
38725;SDS011;24474;48.906;8.808;2024-03-07T02:53:36;38.63;;;24.73;;
38725;SDS011;24474;48.906;8.808;2024-03-07T02:56:03;37.72;;;24.73;;
38725;SDS011;24474;48.906;8.808;2024-03-07T02:58:33;36.50;;;25.45;;
38725;SDS011;24474;48.906;8.808;2024-03-07T03:00:58;39.47;;;24.52;;
38725;SDS011;24474;48.906;8.808;2024-03-07T03:03:25;38.00;;;25.90;;
38725;SDS011;24474;48.906;8.808;2024-03-07T03:05:56;37.85;;;25.02;;
38725;SDS011;24474;48.906;8.808;2024-03-07T03:08:23;38.33;;;24.67;;
38725;SDS011;24474;48.906;8.808;2024-03-07T03:10:49;45.10;;;25.13;;
38725;SDS011;24474;48.906;8.808;2024-03-07T03:13:18;37.25;;;25.52;;
38725;SDS011;24474;48.906;8.808;2024-03-07T03:15:43;36.60;;;23.98;;
38725;SDS011;24474;48.906;8.808;2024-03-07T03:18:09;35.90;;;24.02;;
38725;SDS011;24474;48.906;8.808;2024-03-07T03:20:35;34.00;;;22.27;;
38725;SDS011;24474;48.906;8.808;2024-03-07T03:23:04;39.92;;;24.85;;
38725;SDS011;24474;48.906;8.808;2024-03-07T03:25:30;36.20;;;22.77;;
38725;SDS011;24474;48.906;8.808;2024-03-07T03:28:00;31.13;;;21.98;;
38725;SDS011;24474;48.906;8.808;2024-03-07T03:30:26;33.60;;;22.73;;
38725;SDS011;24474;48.906;8.808;2024-03-07T03:32:53;35.85;;;24.38;;
38725;SDS011;24474;48.906;8.808;2024-03-07T03:35:19;38.47;;;24.30;;
38725;SDS011;24474;48.906;8.808;2024-03-07T03:37:45;38.53;;;24.60;;
38725;SDS011;24474;48.906;8.808;2024-03-07T03:40:11;38.35;;;25.17;;
38725;SDS011;24474;48.906;8.808;2024-03-07T03:42:40;37.83;;;24.67;;
38725;SDS011;24474;48.906;8.808;2024-03-07T03:45:07;39.70;;;25.52;;
38725;SDS011;24474;48.906;8.808;2024-03-07T03:47:35;39.63;;;26.33;;
38725;SDS011;24474;48.906;8.808;2024-03-07T03:50:03;38.92;;;25.83;;
38725;SDS011;24474;48.906;8.808;2024-03-07T03:52:29;40.72;;;26.17;;
38725;SDS011;24474;48.906;8.808;2024-03-07T03:54:55;42.13;;;26.48;;
38725;SDS011;24474;48.906;8.808;2024-03-07T03:57:22;39.83;;;25.42;;
38725;SDS011;24474;48.906;8.808;2024-03-07T03:59:47;41.85;;;26.75;;
38725;SDS011;24474;48.906;8.808;2024-03-07T04:02:13;38.67;;;26.85;;
38725;SDS011;24474;48.906;8.808;2024-03-07T04:04:39;42.50;;;27.17;;
38725;SDS011;24474;48.906;8.808;2024-03-07T04:07:05;38.78;;;26.17;;
38725;SDS011;24474;48.906;8.808;2024-03-07T04:09:30;45.75;;;28.65;;
38725;SDS011;24474;48.906;8.808;2024-03-07T04:11:56;44.83;;;29.05;;
38725;SDS011;24474;48.906;8.808;2024-03-07T04:14:22;40.47;;;27.00;;
38725;SDS011;24474;48.906;8.808;2024-03-07T04:16:48;37.67;;;25.60;;
38725;SDS011;24474;48.906;8.808;2024-03-07T04:19:14;39.75;;;26.55;;
38725;SDS011;24474;48.906;8.808;2024-03-07T04:21:40;38.15;;;25.40;;
38725;SDS011;24474;48.906;8.808;2024-03-07T04:24:06;37.55;;;26.10;;
38725;SDS011;24474;48.906;8.808;2024-03-07T04:26:32;38.58;;;25.98;;
38725;SDS011;24474;48.906;8.808;2024-03-07T04:28:57;39.08;;;26.10;;
38725;SDS011;24474;48.906;8.808;2024-03-07T04:31:23;36.67;;;24.63;;
38725;SDS011;24474;48.906;8.808;2024-03-07T04:33:49;38.58;;;24.67;;
38725;SDS011;24474;48.906;8.808;2024-03-07T04:36:16;35.10;;;24.25;;
38725;SDS011;24474;48.906;8.808;2024-03-07T04:38:42;39.97;;;26.83;;
38725;SDS011;24474;48.906;8.808;2024-03-07T04:41:13;40.55;;;26.80;;
38725;SDS011;24474;48.906;8.808;2024-03-07T04:43:40;40.72;;;25.58;;
38725;SDS011;24474;48.906;8.808;2024-03-07T04:46:07;34.60;;;24.98;;
38725;SDS011;24474;48.906;8.808;2024-03-07T04:48:33;38.95;;;25.33;;
38725;SDS011;24474;48.906;8.808;2024-03-07T04:51:00;39.97;;;24.67;;
38725;SDS011;24474;48.906;8.808;2024-03-07T04:53:25;34.55;;;22.88;;
38725;SDS011;24474;48.906;8.808;2024-03-07T04:55:51;34.25;;;23.50;;
38725;SDS011;24474;48.906;8.808;2024-03-07T04:58:17;33.63;;;23.13;;
38725;SDS011;24474;48.906;8.808;2024-03-07T05:00:43;39.53;;;24.25;;
38725;SDS011;24474;48.906;8.808;2024-03-07T05:03:09;36.55;;;23.02;;
38725;SDS011;24474;48.906;8.808;2024-03-07T05:05:34;34.40;;;22.23;;
38725;SDS011;24474;48.906;8.808;2024-03-07T05:08:01;35.47;;;23.33;;
38725;SDS011;24474;48.906;8.808;2024-03-07T05:10:26;32.72;;;22.75;;
38725;SDS011;24474;48.906;8.808;2024-03-07T05:12:54;36.88;;;25.20;;
38725;SDS011;24474;48.906;8.808;2024-03-07T05:15:20;37.88;;;25.40;;
38725;SDS011;24474;48.906;8.808;2024-03-07T05:17:46;37.35;;;25.05;;
38725;SDS011;24474;48.906;8.808;2024-03-07T05:20:11;39.35;;;25.02;;
38725;SDS011;24474;48.906;8.808;2024-03-07T05:22:38;37.13;;;25.20;;
38725;SDS011;24474;48.906;8.808;2024-03-07T05:25:09;39.45;;;25.63;;
38725;SDS011;24474;48.906;8.808;2024-03-07T05:27:34;40.33;;;26.80;;
38725;SDS011;24474;48.906;8.808;2024-03-07T05:30:01;37.17;;;25.25;;
38725;SDS011;24474;48.906;8.808;2024-03-07T05:32:30;39.22;;;25.75;;
38725;SDS011;24474;48.906;8.808;2024-03-07T05:34:56;38.25;;;25.30;;
38725;SDS011;24474;48.906;8.808;2024-03-07T05:37:22;38.63;;;25.27;;
38725;SDS011;24474;48.906;8.808;2024-03-07T05:39:48;36.90;;;24.42;;
38725;SDS011;24474;48.906;8.808;2024-03-07T05:42:17;38.90;;;25.00;;
38725;SDS011;24474;48.906;8.808;2024-03-07T05:44:43;43.97;;;29.30;;
38725;SDS011;24474;48.906;8.808;2024-03-07T05:47:09;42.97;;;28.65;;
38725;SDS011;24474;48.906;8.808;2024-03-07T05:49:38;41.30;;;28.05;;
38725;SDS011;24474;48.906;8.808;2024-03-07T05:52:04;43.95;;;28.75;;
38725;SDS011;24474;48.906;8.808;2024-03-07T05:54:31;41.55;;;27.90;;
38725;SDS011;24474;48.906;8.808;2024-03-07T05:56:57;40.80;;;27.40;;
38725;SDS011;24474;48.906;8.808;2024-03-07T05:59:22;42.63;;;28.23;;
38725;SDS011;24474;48.906;8.808;2024-03-07T06:01:48;41.33;;;28.10;;
38725;SDS011;24474;48.906;8.808;2024-03-07T06:04:15;39.97;;;28.15;;
38725;SDS011;24474;48.906;8.808;2024-03-07T06:06:41;39.60;;;27.75;;
38725;SDS011;24474;48.906;8.808;2024-03-07T06:09:08;45.90;;;28.90;;
38725;SDS011;24474;48.906;8.808;2024-03-07T06:11:38;41.70;;;27.90;;
38725;SDS011;24474;48.906;8.808;2024-03-07T06:14:04;40.15;;;27.92;;
38725;SDS011;24474;48.906;8.808;2024-03-07T06:16:31;41.55;;;27.77;;
38725;SDS011;24474;48.906;8.808;2024-03-07T06:18:59;42.13;;;26.45;;
38725;SDS011;24474;48.906;8.808;2024-03-07T06:21:26;36.75;;;26.20;;
38725;SDS011;24474;48.906;8.808;2024-03-07T06:23:52;39.78;;;26.58;;
38725;SDS011;24474;48.906;8.808;2024-03-07T06:26:25;40.70;;;27.48;;
38725;SDS011;24474;48.906;8.808;2024-03-07T06:29:02;39.55;;;24.77;;
38725;SDS011;24474;48.906;8.808;2024-03-07T06:31:30;37.78;;;24.98;;
38725;SDS011;24474;48.906;8.808;2024-03-07T06:33:56;37.97;;;25.23;;
38725;SDS011;24474;48.906;8.808;2024-03-07T06:36:22;41.72;;;26.05;;
38725;SDS011;24474;48.906;8.808;2024-03-07T06:38:48;39.42;;;25.90;;
38725;SDS011;24474;48.906;8.808;2024-03-07T06:41:14;38.97;;;25.48;;
38725;SDS011;24474;48.906;8.808;2024-03-07T06:43:39;43.92;;;27.83;;
38725;SDS011;24474;48.906;8.808;2024-03-07T06:46:05;43.10;;;27.27;;
38725;SDS011;24474;48.906;8.808;2024-03-07T06:48:31;47.58;;;28.20;;
38725;SDS011;24474;48.906;8.808;2024-03-07T06:50:57;44.85;;;29.35;;
38725;SDS011;24474;48.906;8.808;2024-03-07T06:53:22;41.53;;;27.75;;
38725;SDS011;24474;48.906;8.808;2024-03-07T06:55:51;41.55;;;27.67;;
38725;SDS011;24474;48.906;8.808;2024-03-07T06:58:19;44.85;;;28.13;;
38725;SDS011;24474;48.906;8.808;2024-03-07T07:00:45;45.38;;;29.23;;
38725;SDS011;24474;48.906;8.808;2024-03-07T07:03:11;43.72;;;29.27;;
38725;SDS011;24474;48.906;8.808;2024-03-07T07:05:38;43.72;;;28.40;;
38725;SDS011;24474;48.906;8.808;2024-03-07T07:08:10;39.60;;;28.00;;
38725;SDS011;24474;48.906;8.808;2024-03-07T07:10:36;40.75;;;27.17;;
38725;SDS011;24474;48.906;8.808;2024-03-07T07:13:02;40.17;;;27.38;;
38725;SDS011;24474;48.906;8.808;2024-03-07T07:15:29;45.97;;;29.05;;
38725;SDS011;24474;48.906;8.808;2024-03-07T07:17:55;40.97;;;28.02;;
38725;SDS011;24474;48.906;8.808;2024-03-07T07:20:21;41.33;;;27.10;;
38725;SDS011;24474;48.906;8.808;2024-03-07T07:22:50;38.55;;;26.85;;
38725;SDS011;24474;48.906;8.808;2024-03-07T07:25:28;43.70;;;27.42;;
38725;SDS011;24474;48.906;8.808;2024-03-07T07:27:54;42.22;;;27.45;;
38725;SDS011;24474;48.906;8.808;2024-03-07T07:30:21;41.90;;;28.27;;
38725;SDS011;24474;48.906;8.808;2024-03-07T07:32:53;40.80;;;27.05;;
38725;SDS011;24474;48.906;8.808;2024-03-07T07:35:19;43.17;;;28.45;;
38725;SDS011;24474;48.906;8.808;2024-03-07T07:37:48;41.58;;;28.23;;
38725;SDS011;24474;48.906;8.808;2024-03-07T07:40:17;45.38;;;29.33;;
38725;SDS011;24474;48.906;8.808;2024-03-07T07:42:45;45.72;;;28.90;;
38725;SDS011;24474;48.906;8.808;2024-03-07T07:45:12;48.47;;;30.25;;
38725;SDS011;24474;48.906;8.808;2024-03-07T07:50:12;47.78;;;31.52;;
38725;SDS011;24474;48.906;8.808;2024-03-07T07:52:49;46.95;;;30.63;;
38725;SDS011;24474;48.906;8.808;2024-03-07T07:55:17;47.60;;;29.45;;
38725;SDS011;24474;48.906;8.808;2024-03-07T07:57:56;38.58;;;26.95;;
38725;SDS011;24474;48.906;8.808;2024-03-07T08:00:25;39.80;;;26.67;;
38725;SDS011;24474;48.906;8.808;2024-03-07T08:03:01;40.35;;;27.00;;
38725;SDS011;24474;48.906;8.808;2024-03-07T08:05:32;38.58;;;26.42;;
38725;SDS011;24474;48.906;8.808;2024-03-07T08:07:59;41.25;;;26.48;;
38725;SDS011;24474;48.906;8.808;2024-03-07T08:12:56;36.53;;;25.15;;
38725;SDS011;24474;48.906;8.808;2024-03-07T08:15:24;36.50;;;25.30;;
38725;SDS011;24474;48.906;8.808;2024-03-07T08:17:51;40.25;;;26.30;;
38725;SDS011;24474;48.906;8.808;2024-03-07T08:20:17;38.92;;;25.80;;
38725;SDS011;24474;48.906;8.808;2024-03-07T08:22:47;37.00;;;24.58;;
38725;SDS011;24474;48.906;8.808;2024-03-07T08:25:13;34.55;;;24.48;;
38725;SDS011;24474;48.906;8.808;2024-03-07T08:27:40;33.20;;;23.75;;
38725;SDS011;24474;48.906;8.808;2024-03-07T08:30:07;33.13;;;22.58;;
38725;SDS011;24474;48.906;8.808;2024-03-07T08:32:43;33.17;;;22.02;;
38725;SDS011;24474;48.906;8.808;2024-03-07T08:35:14;33.08;;;22.17;;
38725;SDS011;24474;48.906;8.808;2024-03-07T08:37:45;32.20;;;21.10;;
38725;SDS011;24474;48.906;8.808;2024-03-07T08:40:14;30.88;;;21.60;;
38725;SDS011;24474;48.906;8.808;2024-03-07T08:42:47;32.60;;;22.58;;
38725;SDS011;24474;48.906;8.808;2024-03-07T08:45:16;31.40;;;21.92;;
38725;SDS011;24474;48.906;8.808;2024-03-07T08:47:45;31.50;;;21.90;;
38725;SDS011;24474;48.906;8.808;2024-03-07T08:50:12;32.38;;;22.23;;
38725;SDS011;24474;48.906;8.808;2024-03-07T08:52:39;32.92;;;22.60;;
38725;SDS011;24474;48.906;8.808;2024-03-07T08:55:07;32.95;;;22.63;;
38725;SDS011;24474;48.906;8.808;2024-03-07T08:57:37;34.47;;;22.45;;
38725;SDS011;24474;48.906;8.808;2024-03-07T09:00:05;32.42;;;21.73;;
38725;SDS011;24474;48.906;8.808;2024-03-07T09:02:38;32.05;;;21.95;;
38725;SDS011;24474;48.906;8.808;2024-03-07T09:05:04;31.63;;;22.02;;
38725;SDS011;24474;48.906;8.808;2024-03-07T09:07:32;32.33;;;21.98;;
38725;SDS011;24474;48.906;8.808;2024-03-07T09:10:01;32.40;;;22.02;;
38725;SDS011;24474;48.906;8.808;2024-03-07T09:12:42;31.95;;;23.20;;
38725;SDS011;24474;48.906;8.808;2024-03-07T09:15:08;32.60;;;22.92;;
38725;SDS011;24474;48.906;8.808;2024-03-07T09:17:41;33.65;;;23.10;;
38725;SDS011;24474;48.906;8.808;2024-03-07T09:20:07;32.10;;;23.17;;
38725;SDS011;24474;48.906;8.808;2024-03-07T09:22:40;35.92;;;22.67;;
38725;SDS011;24474;48.906;8.808;2024-03-07T09:25:12;35.67;;;23.23;;
38725;SDS011;24474;48.906;8.808;2024-03-07T09:27:38;34.15;;;23.15;;
38725;SDS011;24474;48.906;8.808;2024-03-07T09:30:08;30.92;;;22.00;;
38725;SDS011;24474;48.906;8.808;2024-03-07T09:32:40;33.72;;;23.15;;
38725;SDS011;24474;48.906;8.808;2024-03-07T09:35:10;32.33;;;22.83;;
38725;SDS011;24474;48.906;8.808;2024-03-07T09:37:39;36.40;;;23.48;;
38725;SDS011;24474;48.906;8.808;2024-03-07T09:40:08;32.85;;;23.70;;
38725;SDS011;24474;48.906;8.808;2024-03-07T09:42:46;35.05;;;23.90;;
38725;SDS011;24474;48.906;8.808;2024-03-07T09:45:23;31.67;;;23.67;;
38725;SDS011;24474;48.906;8.808;2024-03-07T09:47:56;34.20;;;24.00;;
38725;SDS011;24474;48.906;8.808;2024-03-07T09:50:22;31.33;;;22.90;;
38725;SDS011;24474;48.906;8.808;2024-03-07T09:52:49;35.08;;;24.17;;
38725;SDS011;24474;48.906;8.808;2024-03-07T09:55:17;35.47;;;23.73;;
38725;SDS011;24474;48.906;8.808;2024-03-07T09:57:48;35.15;;;24.10;;
38725;SDS011;24474;48.906;8.808;2024-03-07T10:00:16;34.00;;;23.75;;
38725;SDS011;24474;48.906;8.808;2024-03-07T10:02:47;35.30;;;24.45;;
38725;SDS011;24474;48.906;8.808;2024-03-07T10:05:15;35.97;;;23.55;;
38725;SDS011;24474;48.906;8.808;2024-03-07T10:07:42;34.25;;;24.77;;
38725;SDS011;24474;48.906;8.808;2024-03-07T10:10:07;34.97;;;24.73;;
38725;SDS011;24474;48.906;8.808;2024-03-07T10:12:37;37.92;;;25.08;;
38725;SDS011;24474;48.906;8.808;2024-03-07T10:15:03;33.67;;;25.05;;
38725;SDS011;24474;48.906;8.808;2024-03-07T10:17:38;34.35;;;23.80;;
38725;SDS011;24474;48.906;8.808;2024-03-07T10:20:05;32.75;;;23.25;;
38725;SDS011;24474;48.906;8.808;2024-03-07T10:22:37;33.60;;;23.92;;
38725;SDS011;24474;48.906;8.808;2024-03-07T10:25:05;35.65;;;24.40;;
38725;SDS011;24474;48.906;8.808;2024-03-07T10:27:35;33.55;;;24.02;;
38725;SDS011;24474;48.906;8.808;2024-03-07T10:30:15;32.53;;;23.70;;
38725;SDS011;24474;48.906;8.808;2024-03-07T10:32:56;35.20;;;24.13;;
38725;SDS011;24474;48.906;8.808;2024-03-07T10:35:24;34.53;;;23.83;;
38725;SDS011;24474;48.906;8.808;2024-03-07T10:37:51;39.08;;;23.90;;
38725;SDS011;24474;48.906;8.808;2024-03-07T10:40:19;34.20;;;24.27;;
38725;SDS011;24474;48.906;8.808;2024-03-07T10:42:47;33.33;;;23.80;;
38725;SDS011;24474;48.906;8.808;2024-03-07T10:45:19;36.65;;;24.35;;
38725;SDS011;24474;48.906;8.808;2024-03-07T10:47:49;39.92;;;25.33;;
38725;SDS011;24474;48.906;8.808;2024-03-07T11:04:33;36.83;;;23.30;;
38725;SDS011;24474;48.906;8.808;2024-03-07T11:07:00;34.60;;;23.90;;
38725;SDS011;24474;48.906;8.808;2024-03-07T11:09:27;37.05;;;24.48;;
38725;SDS011;24474;48.906;8.808;2024-03-07T11:12:01;37.47;;;24.15;;
38725;SDS011;24474;48.906;8.808;2024-03-07T11:14:30;36.50;;;24.75;;
38725;SDS011;24474;48.906;8.808;2024-03-07T11:16:56;36.05;;;24.30;;
38725;SDS011;24474;48.906;8.808;2024-03-07T11:19:26;33.67;;;23.65;;
38725;SDS011;24474;48.906;8.808;2024-03-07T11:22:01;36.67;;;24.65;;
38725;SDS011;24474;48.906;8.808;2024-03-07T11:24:39;36.80;;;23.98;;
38725;SDS011;24474;48.906;8.808;2024-03-07T11:27:04;34.42;;;24.00;;
38725;SDS011;24474;48.906;8.808;2024-03-07T11:29:52;36.25;;;25.33;;
38725;SDS011;24474;48.906;8.808;2024-03-07T11:32:18;36.28;;;25.08;;
38725;SDS011;24474;48.906;8.808;2024-03-07T11:34:46;34.55;;;23.45;;
38725;SDS011;24474;48.906;8.808;2024-03-07T11:40:13;37.03;;;23.80;;
38725;SDS011;24474;48.906;8.808;2024-03-07T11:42:49;37.40;;;24.40;;
38725;SDS011;24474;48.906;8.808;2024-03-07T11:45:17;36.67;;;24.27;;
38725;SDS011;24474;48.906;8.808;2024-03-07T11:47:57;37.47;;;24.38;;
38725;SDS011;24474;48.906;8.808;2024-03-07T11:50:34;38.60;;;25.07;;
38725;SDS011;24474;48.906;8.808;2024-03-07T11:53:07;38.70;;;25.33;;
38725;SDS011;24474;48.906;8.808;2024-03-07T11:55:37;39.70;;;26.27;;
38725;SDS011;24474;48.906;8.808;2024-03-07T11:58:13;37.92;;;25.52;;
38725;SDS011;24474;48.906;8.808;2024-03-07T12:00:49;37.58;;;25.00;;
38725;SDS011;24474;48.906;8.808;2024-03-07T12:03:17;36.78;;;24.52;;
38725;SDS011;24474;48.906;8.808;2024-03-07T12:05:48;33.35;;;23.55;;
38725;SDS011;24474;48.906;8.808;2024-03-07T12:08:14;36.97;;;25.10;;
38725;SDS011;24474;48.906;8.808;2024-03-07T12:10:41;36.00;;;24.65;;
38725;SDS011;24474;48.906;8.808;2024-03-07T12:13:12;32.77;;;23.80;;
38725;SDS011;24474;48.906;8.808;2024-03-07T12:15:41;34.33;;;24.33;;
38725;SDS011;24474;48.906;8.808;2024-03-07T12:18:09;34.72;;;24.33;;
38725;SDS011;24474;48.906;8.808;2024-03-07T12:20:44;36.13;;;24.75;;
38725;SDS011;24474;48.906;8.808;2024-03-07T12:23:19;34.67;;;23.42;;
38725;SDS011;24474;48.906;8.808;2024-03-07T12:25:58;34.13;;;24.17;;
38725;SDS011;24474;48.906;8.808;2024-03-07T12:28:30;35.45;;;23.52;;
38725;SDS011;24474;48.906;8.808;2024-03-07T12:31:00;36.53;;;24.23;;
38725;SDS011;24474;48.906;8.808;2024-03-07T12:33:30;39.22;;;24.30;;
38725;SDS011;24474;48.906;8.808;2024-03-07T12:36:04;37.10;;;24.00;;
38725;SDS011;24474;48.906;8.808;2024-03-07T12:38:43;35.05;;;24.88;;
38725;SDS011;24474;48.906;8.808;2024-03-07T12:41:09;36.33;;;24.48;;
38725;SDS011;24474;48.906;8.808;2024-03-07T12:43:39;35.17;;;23.07;;
38725;SDS011;24474;48.906;8.808;2024-03-07T12:46:10;39.00;;;23.90;;
38725;SDS011;24474;48.906;8.808;2024-03-07T12:48:37;35.67;;;24.00;;
38725;SDS011;24474;48.906;8.808;2024-03-07T12:51:10;34.97;;;23.38;;
38725;SDS011;24474;48.906;8.808;2024-03-07T12:53:42;35.17;;;22.90;;
38725;SDS011;24474;48.906;8.808;2024-03-07T12:56:10;39.30;;;23.95;;
38725;SDS011;24474;48.906;8.808;2024-03-07T12:59:00;37.58;;;24.27;;
38725;SDS011;24474;48.906;8.808;2024-03-07T13:01:27;35.40;;;23.45;;
38725;SDS011;24474;48.906;8.808;2024-03-07T13:03:54;35.85;;;23.55;;
38725;SDS011;24474;48.906;8.808;2024-03-07T13:06:20;35.92;;;24.83;;
38725;SDS011;24474;48.906;8.808;2024-03-07T13:08:55;38.03;;;25.85;;
38725;SDS011;24474;48.906;8.808;2024-03-07T13:11:23;36.25;;;23.55;;
38725;SDS011;24474;48.906;8.808;2024-03-07T13:13:53;39.33;;;24.90;;
38725;SDS011;24474;48.906;8.808;2024-03-07T13:16:20;36.47;;;24.45;;
38725;SDS011;24474;48.906;8.808;2024-03-07T13:18:45;34.75;;;24.35;;
38725;SDS011;24474;48.906;8.808;2024-03-07T13:21:12;37.70;;;24.15;;
38725;SDS011;24474;48.906;8.808;2024-03-07T13:23:42;33.08;;;23.70;;
38725;SDS011;24474;48.906;8.808;2024-03-07T13:26:10;37.28;;;25.17;;
38725;SDS011;24474;48.906;8.808;2024-03-07T13:28:41;35.83;;;23.00;;
38725;SDS011;24474;48.906;8.808;2024-03-07T13:31:10;36.28;;;23.67;;
38725;SDS011;24474;48.906;8.808;2024-03-07T13:33:36;37.42;;;24.20;;
38725;SDS011;24474;48.906;8.808;2024-03-07T13:36:02;33.60;;;23.27;;
38725;SDS011;24474;48.906;8.808;2024-03-07T13:38:29;34.83;;;24.70;;
38725;SDS011;24474;48.906;8.808;2024-03-07T13:40:55;33.38;;;24.30;;
38725;SDS011;24474;48.906;8.808;2024-03-07T13:43:22;34.25;;;24.33;;
38725;SDS011;24474;48.906;8.808;2024-03-07T13:45:49;36.72;;;24.23;;
38725;SDS011;24474;48.906;8.808;2024-03-07T13:48:16;34.25;;;24.15;;
38725;SDS011;24474;48.906;8.808;2024-03-07T13:50:45;34.00;;;24.05;;
38725;SDS011;24474;48.906;8.808;2024-03-07T13:53:12;33.95;;;23.50;;
38725;SDS011;24474;48.906;8.808;2024-03-07T13:58:54;36.22;;;24.02;;
38725;SDS011;24474;48.906;8.808;2024-03-07T14:20:10;36.08;;;24.23;;
38725;SDS011;24474;48.906;8.808;2024-03-07T14:32:24;34.38;;;23.50;;
38725;SDS011;24474;48.906;8.808;2024-03-07T14:40:31;29.67;;;21.88;;
38725;SDS011;24474;48.906;8.808;2024-03-07T14:42:58;31.17;;;22.00;;
38725;SDS011;24474;48.906;8.808;2024-03-07T14:45:31;31.45;;;22.02;;
38725;SDS011;24474;48.906;8.808;2024-03-07T14:50:28;29.83;;;21.70;;
38725;SDS011;24474;48.906;8.808;2024-03-07T14:52:56;32.58;;;22.05;;
38725;SDS011;24474;48.906;8.808;2024-03-07T14:55:22;31.73;;;22.20;;
38725;SDS011;24474;48.906;8.808;2024-03-07T14:57:48;34.08;;;22.30;;
38725;SDS011;24474;48.906;8.808;2024-03-07T15:00:14;30.33;;;22.33;;
38725;SDS011;24474;48.906;8.808;2024-03-07T15:03:10;31.73;;;21.40;;
38725;SDS011;24474;48.906;8.808;2024-03-07T15:05:39;32.25;;;22.60;;
38725;SDS011;24474;48.906;8.808;2024-03-07T15:08:10;33.35;;;23.33;;
38725;SDS011;24474;48.906;8.808;2024-03-07T15:10:36;30.45;;;21.75;;
38725;SDS011;24474;48.906;8.808;2024-03-07T15:13:07;33.55;;;23.27;;
38725;SDS011;24474;48.906;8.808;2024-03-07T15:15:33;28.80;;;21.15;;
38725;SDS011;24474;48.906;8.808;2024-03-07T15:17:59;28.83;;;21.50;;
38725;SDS011;24474;48.906;8.808;2024-03-07T15:20:25;32.28;;;22.73;;
38725;SDS011;24474;48.906;8.808;2024-03-07T15:22:55;35.03;;;24.13;;
38725;SDS011;24474;48.906;8.808;2024-03-07T15:25:22;29.95;;;22.90;;
38725;SDS011;24474;48.906;8.808;2024-03-07T15:27:49;30.40;;;22.17;;